Time,TemperatureF,DewpointF,PressureIn,WindDirection,WindDirectionDegrees,WindSpeedMPH,WindSpeedGustMPH,Humidity,HourlyPrecipIn,Conditions,Clouds,dailyrainin,SoftwareType,DateUTC
2013-08-04 00:09:00,79.3,76.1,30.05,SSE,161,0.0,0.0,90,0.00,,,0.00,Weather View 32 v70,2013-08-04 04:09:00,
2013-08-04 00:19:00,78.8,75.9,30.04,SSE,161,0.0,0.0,91,0.00,,,0.00,Weather View 32 v70,2013-08-04 04:19:00,
2013-08-04 00:29:00,78.8,75.9,30.04,SSE,161,0.0,0.0,91,0.00,,,0.00,Weather View 32 v70,2013-08-04 04:29:00,
2013-08-04 00:39:00,78.5,75.6,30.04,SSE,161,0.0,0.0,91,0.00,,,0.00,Weather View 32 v70,2013-08-04 04:39:00,
2013-08-04 00:49:00,78.4,75.9,30.04,South,180,0.0,0.0,92,0.00,,,0.00,Weather View 32 v70,2013-08-04 04:49:00,
2013-08-04 00:53:00,78.4,75.9,30.04,South,180,0.0,0.0,92,0.00,,,0.00,Weather View 32 v70,2013-08-04 04:53:00,
2013-08-04 00:59:00,78.6,76.1,30.04,South,190,0.0,0.0,92,0.00,,,0.00,Weather View 32 v70,2013-08-04 04:59:00,
2013-08-04 01:09:00,78.7,76.2,30.03,SSW,194,0.0,0.0,92,0.00,,,0.00,Weather View 32 v70,2013-08-04 05:09:00,
2013-08-04 01:19:00,78.5,75.6,30.03,SSE,165,0.0,0.0,91,0.00,,,0.00,Weather View 32 v70,2013-08-04 05:19:00,
2013-08-04 01:29:00,78.4,75.5,30.03,SSW,200,0.0,0.0,91,0.00,,,0.00,Weather View 32 v70,2013-08-04 05:29:00,
2013-08-04 01:39:00,78.4,75.5,30.02,SSW,200,0.0,0.0,91,0.00,,,0.00,Weather View 32 v70,2013-08-04 05:39:00,
2013-08-04 01:49:00,78.3,75.8,30.02,SSW,198,0.0,0.0,92,0.00,,,0.00,Weather View 32 v70,2013-08-04 05:49:00,
2013-08-04 01:53:00,78.3,75.8,30.02,SSW,198,0.0,0.0,92,0.00,,,0.00,Weather View 32 v70,2013-08-04 05:53:00,
2013-08-04 01:59:00,78.3,75.8,30.02,SW,232,0.0,0.0,92,0.00,,,0.00,Weather View 32 v70,2013-08-04 05:59:00,
2013-08-04 02:09:00,78.1,75.6,30.01,SW,232,0.0,0.0,92,0.00,,,0.00,Weather View 32 v70,2013-08-04 06:09:00,
2013-08-04 02:20:00,78.0,75.8,30.01,SW,232,0.0,0.0,93,0.00,,,0.00,Weather View 32 v70,2013-08-04 06:20:00,
2013-08-04 02:29:00,78.0,75.8,30.02,SW,232,0.0,0.0,93,0.00,,,0.00,Weather View 32 v70,2013-08-04 06:29:00,
2013-08-04 02:39:00,78.3,75.8,30.01,SSW,207,0.0,0.0,92,0.00,,,0.00,Weather View 32 v70,2013-08-04 06:39:00,
2013-08-04 02:49:00,78.0,75.5,30.01,SSW,207,0.0,0.0,92,0.00,,,0.00,Weather View 32 v70,2013-08-04 06:49:00,
2013-08-04 02:54:00,78.0,75.5,30.01,SSW,207,0.0,0.0,92,0.00,,,0.00,Weather View 32 v70,2013-08-04 06:54:00,
2013-08-04 03:09:00,78.1,75.9,30.00,SSW,200,0.0,0.0,93,0.00,,,0.00,Weather View 32 v70,2013-08-04 07:09:00,
2013-08-04 03:19:00,77.8,75.6,30.00,SSW,200,0.0,0.0,93,0.00,,,0.00,Weather View 32 v70,2013-08-04 07:19:00,
2013-08-04 03:29:00,78.0,75.8,30.00,SSW,200,0.0,0.0,93,0.00,,,0.00,Weather View 32 v70,2013-08-04 07:29:00,
2013-08-04 03:39:00,77.7,75.5,30.00,SSW,200,0.0,0.0,93,0.00,,,0.00,Weather View 32 v70,2013-08-04 07:39:00,
2013-08-04 03:49:00,77.5,75.3,30.00,SSW,199,0.0,0.0,93,0.00,,,0.00,Weather View 32 v70,2013-08-04 07:49:00,
2013-08-04 03:55:00,77.5,75.3,30.00,SSW,199,0.0,0.0,93,0.00,,,0.00,Weather View 32 v70,2013-08-04 07:55:00,
2013-08-04 04:09:00,77.3,75.4,30.00,SSW,199,0.0,0.0,94,0.00,,,0.00,Weather View 32 v70,2013-08-04 08:09:00,
2013-08-04 04:19:00,77.4,75.5,30.00,SSW,199,0.0,0.0,94,0.00,,,0.00,Weather View 32 v70,2013-08-04 08:19:00,
2013-08-04 04:29:00,77.3,75.4,30.00,SSW,199,0.0,0.0,94,0.00,,,0.00,Weather View 32 v70,2013-08-04 08:29:00,
2013-08-04 04:39:00,77.0,75.1,30.00,SSW,199,0.0,0.0,94,0.00,,,0.00,Weather View 32 v70,2013-08-04 08:39:00,
2013-08-04 04:49:00,76.8,74.9,30.00,SSW,199,0.0,0.0,94,0.00,,,0.00,Weather View 32 v70,2013-08-04 08:49:00,
2013-08-04 04:56:00,76.8,74.9,30.00,SSW,199,0.0,0.0,94,0.00,,,0.00,Weather View 32 v70,2013-08-04 08:56:00,
2013-08-04 04:59:00,76.6,74.7,30.00,SSW,199,0.0,0.0,94,0.00,,,0.00,Weather View 32 v70,2013-08-04 08:59:00,
2013-08-04 05:09:00,76.4,74.9,30.00,SSW,199,0.0,0.0,95,0.00,,,0.00,Weather View 32 v70,2013-08-04 09:09:00,
2013-08-04 05:19:00,76.3,74.8,30.00,SSW,199,0.0,0.0,95,0.00,,,0.00,Weather View 32 v70,2013-08-04 09:19:00,
2013-08-04 05:29:00,76.2,74.7,30.00,SSW,199,0.0,0.0,95,0.00,,,0.00,Weather View 32 v70,2013-08-04 09:29:00,
2013-08-04 05:39:00,76.0,74.5,30.00,SSW,199,0.0,0.0,95,0.00,,,0.00,Weather View 32 v70,2013-08-04 09:39:00,
2013-08-04 05:49:00,76.1,74.6,30.00,SSW,199,0.0,0.0,95,0.00,,,0.00,Weather View 32 v70,2013-08-04 09:49:00,
2013-08-04 05:56:00,76.1,74.6,30.00,SSW,199,0.0,0.0,95,0.00,,,0.00,Weather View 32 v70,2013-08-04 09:56:00,
2013-08-04 05:59:00,76.2,74.7,30.00,SSW,199,0.0,0.0,95,0.00,,,0.00,Weather View 32 v70,2013-08-04 09:59:00,
2013-08-04 06:09:00,76.3,75.1,30.00,SSW,199,0.0,0.0,96,0.00,,,0.00,Weather View 32 v70,2013-08-04 10:09:00,
2013-08-04 06:19:00,76.2,75.0,30.01,SSW,199,0.0,0.0,96,0.00,,,0.00,Weather View 32 v70,2013-08-04 10:19:00,
2013-08-04 06:29:00,76.1,74.9,30.01,SSW,199,0.0,0.0,96,0.00,,,0.00,Weather View 32 v70,2013-08-04 10:29:00,
2013-08-04 06:39:00,76.3,75.1,30.01,SSW,199,0.0,0.0,96,0.00,,,0.00,Weather View 32 v70,2013-08-04 10:39:00,
2013-08-04 06:49:00,76.2,75.0,30.01,SSW,199,0.0,0.0,96,0.00,,,0.00,Weather View 32 v70,2013-08-04 10:49:00,
2013-08-04 06:56:00,76.2,75.0,30.01,SSW,199,0.0,0.0,96,0.00,,,0.00,Weather View 32 v70,2013-08-04 10:56:00,
2013-08-04 06:59:00,76.1,74.9,30.02,SSW,199,0.0,0.0,96,0.00,,,0.00,Weather View 32 v70,2013-08-04 10:59:00,
2013-08-04 07:09:00,76.2,75.0,30.02,SSW,199,0.0,0.0,96,0.00,,,0.00,Weather View 32 v70,2013-08-04 11:09:00,
2013-08-04 07:19:00,76.2,75.0,30.02,SSW,199,0.0,0.0,96,0.00,,,0.00,Weather View 32 v70,2013-08-04 11:19:00,
2013-08-04 07:29:00,76.4,75.2,30.02,SSW,199,0.0,0.0,96,0.00,,,0.00,Weather View 32 v70,2013-08-04 11:29:00,
2013-08-04 07:39:00,76.9,75.7,30.02,SSW,199,0.0,0.0,96,0.00,,,0.00,Weather View 32 v70,2013-08-04 11:39:00,
2013-08-04 07:49:00,77.5,75.9,30.02,SSW,199,0.0,0.0,95,0.00,,,0.00,Weather View 32 v70,2013-08-04 11:49:00,
2013-08-04 07:57:00,77.5,75.9,30.02,SSW,199,0.0,0.0,95,0.00,,,0.00,Weather View 32 v70,2013-08-04 11:57:00,
2013-08-04 07:59:00,77.9,76.3,30.02,SSW,199,0.0,0.0,95,0.00,,,0.00,Weather View 32 v70,2013-08-04 11:59:00,
2013-08-04 08:09:00,78.5,76.6,30.02,WSW,251,0.0,0.0,94,0.00,,,0.00,Weather View 32 v70,2013-08-04 12:09:00,
2013-08-04 08:19:00,79.4,77.2,30.03,West,272,0.0,4.0,93,0.00,,,0.00,Weather View 32 v70,2013-08-04 12:19:00,
2013-08-04 08:29:00,80.1,77.2,30.03,West,271,2.0,5.0,91,0.00,,,0.00,Weather View 32 v70,2013-08-04 12:29:00,
2013-08-04 08:39:00,81.0,77.8,30.03,West,268,0.0,5.0,90,0.00,,,0.00,Weather View 32 v70,2013-08-04 12:39:00,
2013-08-04 08:49:00,81.7,78.1,30.03,WNW,282,0.0,5.0,89,0.00,,,0.00,Weather View 32 v70,2013-08-04 12:49:00,
2013-08-04 08:58:00,81.7,78.1,30.03,WNW,282,0.0,5.0,89,0.00,,,0.00,Weather View 32 v70,2013-08-04 12:58:00,
2013-08-04 09:09:00,82.7,78.4,30.03,West,281,1.0,10.0,87,0.00,,,0.00,Weather View 32 v70,2013-08-04 13:09:00,
2013-08-04 09:19:00,83.2,78.6,30.03,ESE,118,1.0,10.0,86,0.00,,,0.00,Weather View 32 v70,2013-08-04 13:19:00,
2013-08-04 09:29:00,83.2,78.6,30.03,WNW,286,6.0,11.0,86,0.00,,,0.00,Weather View 32 v70,2013-08-04 13:29:00,
2013-08-04 09:39:00,83.6,78.6,30.03,West,272,4.0,11.0,85,0.00,,,0.00,Weather View 32 v70,2013-08-04 13:39:00,
2013-08-04 09:49:00,83.7,78.3,30.04,SSE,159,1.0,11.0,84,0.00,,,0.00,Weather View 32 v70,2013-08-04 13:49:00,
2013-08-04 09:58:00,83.7,78.3,30.04,SSE,159,1.0,11.0,84,0.00,,,0.00,Weather View 32 v70,2013-08-04 13:58:00,
2013-08-04 09:59:00,84.3,78.5,30.04,West,269,1.0,11.0,83,0.00,,,0.00,Weather View 32 v70,2013-08-04 13:59:00,
2013-08-04 10:09:00,84.2,78.1,30.04,West,273,2.0,12.0,82,0.00,,,0.00,Weather View 32 v70,2013-08-04 14:09:00,
2013-08-04 10:19:00,84.1,78.3,30.05,WSW,246,0.0,12.0,83,0.00,,,0.00,Weather View 32 v70,2013-08-04 14:19:00,
2013-08-04 10:29:00,85.1,78.6,30.05,West,275,2.0,12.0,81,0.00,,,0.00,Weather View 32 v70,2013-08-04 14:29:00,
2013-08-04 10:39:00,85.3,78.4,30.05,WNW,284,0.0,12.0,80,0.00,,,0.00,Weather View 32 v70,2013-08-04 14:39:00,
2013-08-04 10:49:00,84.4,78.6,30.05,NW,309,0.0,12.0,83,0.00,,,0.00,Weather View 32 v70,2013-08-04 14:49:00,
2013-08-04 10:59:00,84.4,78.6,30.05,NW,309,0.0,12.0,83,0.00,,,0.00,Weather View 32 v70,2013-08-04 14:59:00,
2013-08-04 11:09:00,86.0,78.3,30.04,SSE,165,0.0,10.0,78,0.00,,,0.00,Weather View 32 v70,2013-08-04 15:09:00,
2013-08-04 11:19:00,86.7,79.0,30.03,SSW,206,0.0,10.0,78,0.00,,,0.00,Weather View 32 v70,2013-08-04 15:19:00,
2013-08-04 11:29:00,87.1,78.2,30.03,WSW,242,1.0,10.0,75,0.00,,,0.00,Weather View 32 v70,2013-08-04 15:29:00,
2013-08-04 11:39:00,86.7,78.2,30.03,SSE,161,2.0,9.0,76,0.00,,,0.00,Weather View 32 v70,2013-08-04 15:39:00,
2013-08-04 11:49:00,87.3,78.0,30.03,West,273,1.0,9.0,74,0.00,,,0.00,Weather View 32 v70,2013-08-04 15:49:00,
2013-08-04 11:59:00,88.3,78.9,30.02,West,269,2.0,9.0,74,0.00,,,0.00,Weather View 32 v70,2013-08-04 15:59:00,
2013-08-04 12:09:00,87.7,77.9,30.02,SE,144,2.0,9.0,73,0.00,,,0.00,Weather View 32 v70,2013-08-04 16:09:00,
2013-08-04 12:19:00,88.5,77.4,30.01,WSW,240,0.0,8.0,70,0.00,,,0.00,Weather View 32 v70,2013-08-04 16:19:00,
2013-08-04 12:29:00,88.4,78.2,30.01,SSW,197,0.0,8.0,72,0.00,,,0.00,Weather View 32 v70,2013-08-04 16:29:00,
2013-08-04 12:39:00,87.8,77.6,30.01,SSE,156,1.0,8.0,72,0.00,,,0.00,Weather View 32 v70,2013-08-04 16:39:00,
2013-08-04 12:49:00,89.0,77.5,30.00,SE,134,2.0,8.0,69,0.00,,,0.00,Weather View 32 v70,2013-08-04 16:49:00,
2013-08-04 13:00:00,89.3,77.7,30.01,SW,220,1.0,9.0,69,0.00,,,0.00,Weather View 32 v70,2013-08-04 17:00:00,
2013-08-04 13:10:00,89.2,77.2,30.00,West,274,6.0,9.0,68,0.00,,,0.00,Weather View 32 v70,2013-08-04 17:10:00,
2013-08-04 13:19:00,90.1,78.1,29.99,WNW,295,3.0,9.0,68,0.00,,,0.00,Weather View 32 v70,2013-08-04 17:19:00,
2013-08-04 13:29:00,90.1,78.1,29.99,WNW,302,3.0,10.0,68,0.00,,,0.00,Weather View 32 v70,2013-08-04 17:29:00,
2013-08-04 13:39:00,91.1,77.6,29.99,WNW,292,6.0,10.0,65,0.00,,,0.00,Weather View 32 v70,2013-08-04 17:39:00,
2013-08-04 13:49:00,90.9,76.5,29.98,WNW,291,0.0,10.0,63,0.00,,,0.00,Weather View 32 v70,2013-08-04 17:49:00,
2013-08-04 13:59:00,90.8,76.4,29.98,West,279,3.0,10.0,63,0.00,,,0.00,Weather View 32 v70,2013-08-04 17:59:00,
2013-08-04 14:09:00,90.4,77.0,29.97,West,278,0.0,10.0,65,0.00,,,0.00,Weather View 32 v70,2013-08-04 18:09:00,
2013-08-04 14:19:00,90.5,76.6,29.97,West,280,0.0,10.0,64,0.00,,,0.00,Weather View 32 v70,2013-08-04 18:19:00,
2013-08-04 14:29:00,90.5,76.6,29.97,WNW,290,3.0,9.0,64,0.00,,,0.00,Weather View 32 v70,2013-08-04 18:29:00,
2013-08-04 14:39:00,89.7,77.2,29.96,NW,304,0.0,9.0,67,0.00,,,0.00,Weather View 32 v70,2013-08-04 18:39:00,
2013-08-04 14:49:00,90.0,77.1,29.96,WSW,258,2.0,9.0,66,0.00,,,0.00,Weather View 32 v70,2013-08-04 18:49:00,
2013-08-04 14:59:00,91.0,77.1,29.96,WNW,294,1.0,9.0,64,0.00,,,0.00,Weather View 32 v70,2013-08-04 18:59:00,
2013-08-04 15:09:00,90.6,77.2,29.96,SW,222,0.0,9.0,65,0.00,,,0.00,Weather View 32 v70,2013-08-04 19:09:00,
2013-08-04 15:19:00,91.1,77.2,29.95,WNW,294,1.0,6.0,64,0.00,,,0.00,Weather View 32 v70,2013-08-04 19:19:00,
2013-08-04 15:29:00,91.4,76.0,29.95,ENE,75,0.0,5.0,61,0.00,,,0.00,Weather View 32 v70,2013-08-04 19:29:00,
2013-08-04 15:39:00,90.4,77.9,29.95,SSE,167,3.0,11.0,67,0.00,,,0.00,Weather View 32 v70,2013-08-04 19:39:00,
2013-08-04 15:49:00,88.1,78.7,29.95,South,169,3.0,11.0,74,0.00,,,0.00,Weather View 32 v70,2013-08-04 19:49:00,
2013-08-04 15:59:00,87.6,77.4,29.95,South,186,6.0,11.0,72,0.00,,,0.00,Weather View 32 v70,2013-08-04 19:59:00,
2013-08-04 16:09:00,88.2,78.4,29.95,SSE,163,3.0,11.0,73,0.00,,,0.00,Weather View 32 v70,2013-08-04 20:09:00,
2013-08-04 16:19:00,88.4,77.7,29.96,SW,225,4.0,11.0,71,0.00,,,0.00,Weather View 32 v70,2013-08-04 20:19:00,
2013-08-04 16:29:00,88.0,77.8,29.95,SSE,167,9.0,11.0,72,0.00,,,0.00,Weather View 32 v70,2013-08-04 20:29:00,
2013-08-04 16:39:00,87.5,78.1,29.95,South,171,1.0,11.0,74,0.00,,,0.00,Weather View 32 v70,2013-08-04 20:39:00,
2013-08-04 16:49:00,87.2,78.3,29.95,South,176,4.0,11.0,75,0.00,,,0.00,Weather View 32 v70,2013-08-04 20:49:00,
2013-08-04 16:59:00,86.9,78.0,29.95,South,171,8.0,11.0,75,0.00,,,0.00,Weather View 32 v70,2013-08-04 20:59:00,
2013-08-04 17:03:00,86.9,78.0,29.95,South,171,8.0,11.0,75,0.00,,,0.00,Weather View 32 v70,2013-08-04 21:03:00,
2013-08-04 17:09:00,86.3,78.2,29.95,South,169,5.0,10.0,77,0.00,,,0.00,Weather View 32 v70,2013-08-04 21:09:00,
2013-08-04 17:19:00,86.2,78.1,29.95,SSW,198,0.0,10.0,77,0.00,,,0.00,Weather View 32 v70,2013-08-04 21:19:00,
2013-08-04 17:29:00,86.0,78.3,29.95,SW,214,1.0,10.0,78,0.00,,,0.00,Weather View 32 v70,2013-08-04 21:29:00,
2013-08-04 17:39:00,86.4,78.3,29.94,SSW,192,3.0,10.0,77,0.00,,,0.00,Weather View 32 v70,2013-08-04 21:39:00,
2013-08-04 17:49:00,86.0,78.3,29.93,South,179,0.0,10.0,78,0.00,,,0.00,Weather View 32 v70,2013-08-04 21:49:00,
2013-08-04 17:59:00,86.1,78.4,29.93,South,191,0.0,10.0,78,0.00,,,0.00,Weather View 32 v70,2013-08-04 21:59:00,
2013-08-04 18:03:00,86.1,78.4,29.93,South,191,0.0,10.0,78,0.00,,,0.00,Weather View 32 v70,2013-08-04 22:03:00,
2013-08-04 18:09:00,86.3,79.0,29.92,West,263,1.0,9.0,79,0.00,,,0.00,Weather View 32 v70,2013-08-04 22:09:00,
2013-08-04 18:19:00,86.6,79.3,29.92,South,177,1.0,8.0,79,0.00,,,0.00,Weather View 32 v70,2013-08-04 22:19:00,
2013-08-04 18:29:00,86.8,79.5,29.92,South,174,4.0,8.0,79,0.00,,,0.00,Weather View 32 v70,2013-08-04 22:29:00,
2013-08-04 18:39:00,87.2,79.9,29.93,South,171,3.0,8.0,79,0.00,,,0.00,Weather View 32 v70,2013-08-04 22:39:00,
2013-08-04 18:49:00,86.9,79.6,29.93,South,170,3.0,7.0,79,0.00,,,0.00,Weather View 32 v70,2013-08-04 22:49:00,
2013-08-04 18:59:00,86.7,79.8,29.94,SSE,152,0.0,7.0,80,0.00,,,0.00,Weather View 32 v70,2013-08-04 22:59:00,
2013-08-04 19:04:00,86.7,79.8,29.94,SSE,152,0.0,7.0,80,0.00,,,0.00,Weather View 32 v70,2013-08-04 23:04:00,
2013-08-04 19:10:00,86.6,80.0,29.94,SSE,157,0.0,7.0,81,0.00,,,0.00,Weather View 32 v70,2013-08-04 23:10:00,
2013-08-04 19:19:00,86.4,79.8,29.94,South,186,0.0,7.0,81,0.00,,,0.00,Weather View 32 v70,2013-08-04 23:19:00,
2013-08-04 19:30:00,86.0,79.5,29.94,SSE,165,1.0,7.0,81,0.00,,,0.00,Weather View 32 v70,2013-08-04 23:30:00,
2013-08-04 19:40:00,85.7,78.8,29.95,SW,216,0.0,7.0,80,0.00,,,0.00,Weather View 32 v70,2013-08-04 23:40:00,
2013-08-04 19:50:00,85.2,78.3,29.95,SSW,196,0.0,7.0,80,0.00,,,0.00,Weather View 32 v70,2013-08-04 23:50:00,
2013-08-04 19:59:00,84.7,78.2,29.95,SSW,200,0.0,5.0,81,0.00,,,0.00,Weather View 32 v70,2013-08-04 23:59:00,
2013-08-04 20:05:00,84.7,78.2,29.95,SSW,200,0.0,5.0,81,0.00,,,0.00,Weather View 32 v70,2013-08-05 00:05:00,
2013-08-04 20:19:00,84.1,78.0,29.96,SSW,196,0.0,5.0,82,0.00,,,0.00,Weather View 32 v70,2013-08-05 00:19:00,
2013-08-04 20:29:00,83.7,78.0,29.96,SSW,196,0.0,3.0,83,0.00,,,0.00,Weather View 32 v70,2013-08-05 00:29:00,
2013-08-04 20:39:00,83.2,77.5,29.97,SSW,196,0.0,2.0,83,0.00,,,0.00,Weather View 32 v70,2013-08-05 00:39:00,
2013-08-04 20:49:00,83.0,77.3,29.96,SSW,196,0.0,2.0,83,0.00,,,0.00,Weather View 32 v70,2013-08-05 00:49:00,
2013-08-04 20:59:00,83.0,76.9,29.97,SSW,211,0.0,2.0,82,0.00,,,0.00,Weather View 32 v70,2013-08-05 00:59:00,
2013-08-04 21:05:00,83.0,76.9,29.97,SSW,211,0.0,2.0,82,0.00,,,0.00,Weather View 32 v70,2013-08-05 01:05:00,
2013-08-04 21:19:00,82.7,77.0,29.97,SSW,205,0.0,1.0,83,0.00,,,0.00,Weather View 32 v70,2013-08-05 01:19:00,
2013-08-04 21:29:00,82.6,76.9,29.97,SSW,205,0.0,1.0,83,0.00,,,0.00,Weather View 32 v70,2013-08-05 01:29:00,
2013-08-04 21:39:00,82.5,76.8,29.97,South,190,0.0,0.0,83,0.00,,,0.00,Weather View 32 v70,2013-08-05 01:39:00,
2013-08-04 21:49:00,82.3,76.6,29.97,South,188,0.0,0.0,83,0.00,,,0.00,Weather View 32 v70,2013-08-05 01:49:00,
2013-08-04 22:00:00,82.2,76.5,29.97,South,182,0.0,0.0,83,0.00,,,0.00,Weather View 32 v70,2013-08-05 02:00:00,
2013-08-04 22:06:00,82.2,76.5,29.97,South,182,0.0,0.0,83,0.00,,,0.00,Weather View 32 v70,2013-08-05 02:06:00,
2013-08-04 22:09:00,82.1,76.8,29.98,SW,225,0.0,0.0,84,0.00,,,0.00,Weather View 32 v70,2013-08-05 02:09:00,
2013-08-04 22:19:00,81.8,76.5,29.98,SW,225,0.0,0.0,84,0.00,,,0.00,Weather View 32 v70,2013-08-05 02:19:00,
2013-08-04 22:29:00,81.7,76.7,29.98,SW,222,0.0,0.0,85,0.00,,,0.00,Weather View 32 v70,2013-08-05 02:29:00,
2013-08-04 22:39:00,81.5,76.9,29.98,SW,222,0.0,0.0,86,0.00,,,0.00,Weather View 32 v70,2013-08-05 02:39:00,
2013-08-04 22:49:00,81.3,76.7,29.98,SW,235,0.0,0.0,86,0.00,,,0.00,Weather View 32 v70,2013-08-05 02:49:00,
2013-08-04 22:59:00,81.2,76.9,29.98,SW,236,0.0,0.0,87,0.00,,,0.00,Weather View 32 v70,2013-08-05 02:59:00,
2013-08-04 23:09:00,81.2,76.9,29.98,SSE,166,0.0,0.0,87,0.00,,,0.00,Weather View 32 v70,2013-08-05 03:09:00,
2013-08-04 23:19:00,81.0,77.1,29.98,West,262,0.0,0.0,88,0.00,,,0.00,Weather View 32 v70,2013-08-05 03:19:00,
2013-08-04 23:29:00,80.9,77.3,29.98,WSW,252,0.0,0.0,89,0.00,,,0.00,Weather View 32 v70,2013-08-05 03:29:00,
2013-08-04 23:39:00,80.8,77.2,29.98,WSW,253,0.0,0.0,89,0.00,,,0.00,Weather View 32 v70,2013-08-05 03:39:00,
2013-08-04 23:50:00,80.8,77.2,29.99,South,184,0.0,0.0,89,0.00,,,0.00,Weather View 32 v70,2013-08-05 03:50:00,
2013-08-04 23:59:00,80.8,77.2,29.99,South,184,0.0,0.0,89,0.00,,,0.00,Weather View 32 v70,2013-08-05 03:59:00,